Disclaimer

Please do not use the information listed here in-flight or in-navigation, as they are not provided to us by the airports but are provided by volunteers, so they might be outdated.

Search


Regions


Airport information page

Radio informations:
Ground (GND) - 259.3 MHz
Melbourne Center - 122.0 MHz

Airport informations:
Latitude: 31° 08' 39.00" S
Longitude: 136° 49' 01.00" E
Elevation: 548 feet - 167 meters
Operating hours: Remarks
Operating agency: Military
Timezone: UTC+9:30(+10:30DT)
Fuel: N/A

Runway information:
12/30 - 5295 x 98 feet< - >1614 x 30 meters
18/36 - 7782 x 148 feet< - >2372 x 45 meters

Recent METARs:
YPWR 141530Z AUTO 16016KT 9999 // NCD 16/09 Q1020 RF00.0/000.0
YPWR 141600Z AUTO 15013KT 9999 // NCD 16/09 Q1020
YPWR 141630Z AUTO 15015KT 9999 // NCD 16/08 Q1020 RF00.0/000.0

Airport on the map: